Time;durP1;ratioP1;P1;durP2;ratioP2;P2;SDS_P1;SDS_P2;PMS_P1;PMS_P2;Temp;Humidity;BMP_temperature;BMP_pressure;BME280_temperature;BME280_humidity;BME280_pressure;Samples;Min_cycle;Max_cycle;Signal;HPM_P1;HPM_P2
2023/03/21 00:00:31;;;;;;;6.30;5.75;;;17.70;66.30;;;;;;5092273;28;20232;-66
2023/03/21 00:03:19;;;;;;;7.07;6.10;;;18.20;67.00;;;;;;5083564;28;20298;-66
2023/03/21 00:06:10;;;;;;;8.43;7.63;;;18.20;66.80;;;;;;5091115;28;20224;-66
2023/03/21 00:08:58;;;;;;;7.72;7.03;;;18.20;66.70;;;;;;5092199;28;20196;-66
2023/03/21 00:11:47;;;;;;;9.45;5.97;;;18.20;67.00;;;;;;5090034;28;20203;-66
2023/03/21 00:14:36;;;;;;;8.48;7.68;;;18.20;67.20;;;;;;5090678;28;20247;-66
2023/03/21 00:17:29;;;;;;;7.28;6.57;;;18.20;67.30;;;;;;5090685;28;20275;-66
2023/03/21 00:20:18;;;;;;;7.93;6.70;;;18.20;66.90;;;;;;5082391;28;20279;-66
2023/03/21 00:23:06;;;;;;;8.52;7.28;;;18.10;83.80;;;;;;5091149;28;20330;-66
2023/03/21 00:25:54;;;;;;;7.75;7.05;;;18.10;66.70;;;;;;5090832;28;20252;-66
2023/03/21 00:28:43;;;;;;;6.57;5.97;;;18.10;66.70;;;;;;5092253;28;20257;-66
2023/03/21 00:31:32;;;;;;;7.75;7.05;;;17.50;66.50;;;;;;5090960;28;20234;-66
2023/03/21 00:34:20;;;;;;;6.72;6.18;;;18.10;67.10;;;;;;5090689;28;20220;-66
2023/03/21 00:37:28;;;;;;;8.68;6.85;;;18.10;67.10;;;;;;5092364;28;20691;-66
2023/03/21 00:40:18;;;;;;;7.80;7.00;;;18.10;67.30;;;;;;5094718;28;20249;-66
2023/03/21 00:43:22;;;;;;;7.45;6.63;;;18.10;67.20;;;;;;5095322;28;20255;-66
2023/03/21 00:46:10;;;;;;;8.10;7.35;;;18.10;67.40;;;;;;5095525;28;20479;-66
2023/03/21 00:48:59;;;;;;;9.07;7.80;;;18.00;67.20;;;;;;5096383;28;20197;-66
2023/03/21 00:51:50;;;;;;;8.25;7.45;;;18.00;67.30;;;;;;5095149;28;20294;-66
2023/03/21 00:54:38;;;;;;;13.30;9.02;;;18.00;67.20;;;;;;5095121;28;20239;-66
2023/03/21 00:57:26;;;;;;;8.77;7.97;;;18.00;67.00;;;;;;5086213;28;20595;-66
2023/03/21 01:00:26;;;;;;;7.75;6.85;;;18.10;67.30;;;;;;5074568;28;20203;-66
2023/03/21 01:03:15;;;;;;;7.90;7.20;;;18.20;67.50;;;;;;5073934;28;20303;-66
2023/03/21 01:06:18;;;;;;;11.68;9.38;;;17.80;67.20;;;;;;5073882;28;20239;-66
2023/03/21 01:09:07;;;;;;;8.73;7.88;;;18.20;67.70;;;;;;5074332;28;20204;-66
2023/03/21 01:11:55;;;;;;;8.27;7.47;;;18.00;67.60;;;;;;5073658;28;20204;-66
2023/03/21 01:14:43;;;;;;;9.05;7.40;;;18.10;67.80;;;;;;5073870;28;20299;-66
2023/03/21 01:17:31;;;;;;;9.20;8.30;;;18.00;67.90;;;;;;5073700;28;20201;-66
2023/03/21 01:20:19;;;;;;;10.05;7.95;;;17.90;67.80;;;;;;5073554;28;20669;-66
2023/03/21 01:23:09;;;;;;;9.13;7.93;;;17.80;85.10;;;;;;5074008;28;20208;-66
2023/03/21 01:25:57;;;;;;;10.98;8.65;;;18.00;68.10;;;;;;5074138;28;20256;-66
2023/03/21 01:28:45;;;;;;;8.77;7.88;;;18.00;68.10;;;;;;5073517;28;20209;-67
2023/03/21 01:31:33;;;;;;;10.48;8.50;;;18.00;68.20;;;;;;5073323;28;20204;-66
2023/03/21 01:34:21;;;;;;;9.10;8.20;;;18.00;68.20;;;;;;5073880;28;20220;-66
2023/03/21 01:37:09;;;;;;;7.43;6.63;;;18.10;68.30;;;;;;5073438;28;20845;-66
2023/03/21 01:39:59;;;;;;;8.00;7.20;;;18.00;68.40;;;;;;5073439;28;20290;-66
2023/03/21 01:42:47;;;;;;;7.40;6.70;;;18.10;68.80;;;;;;5072986;28;20255;-66
2023/03/21 01:46:26;;;;;;;6.65;6.15;;;17.90;68.00;;;;;;5073999;28;20351;-66
2023/03/21 01:49:23;;;;;;;7.38;6.78;;;17.90;68.80;;;;;;5072621;28;20239;-67
2023/03/21 01:52:15;;;;;;;7.43;6.57;;;17.90;68.80;;;;;;5073776;28;20205;-66
2023/03/21 01:55:18;;;;;;;7.82;7.05;;;17.90;68.90;;;;;;5073306;28;20283;-65
2023/03/21 01:58:09;;;;;;;8.00;6.43;;;18.00;69.00;;;;;;5089679;28;20259;-66
2023/03/21 02:00:58;;;;;;;6.63;6.10;;;18.00;69.00;;;;;;5100042;28;20239;-66
2023/03/21 02:03:50;;;;;;;7.88;7.05;;;17.90;69.00;;;;;;5094934;28;20290;-66
2023/03/21 02:06:44;;;;;;;10.13;8.75;;;17.70;68.70;;;;;;5094368;28;20290;-66
2023/03/21 02:09:34;;;;;;;6.50;5.90;;;17.90;68.80;;;;;;5094239;28;20204;-66
2023/03/21 02:12:25;;;;;;;7.40;6.70;;;17.90;68.90;;;;;;5083808;28;20246;-66
2023/03/21 02:15:14;;;;;;;9.02;7.57;;;17.90;69.00;;;;;;5070035;28;20300;-66
2023/03/21 02:18:09;;;;;;;7.43;6.38;;;17.90;69.00;;;;;;5072714;28;20273;-67
2023/03/21 02:21:24;;;;;;;7.75;7.05;;;17.90;69.10;;;;;;5072585;28;20213;-66
2023/03/21 02:24:36;;;;;;;8.88;7.35;;;17.90;69.00;;;;;;5072225;28;20216;-66
2023/03/21 02:27:28;;;;;;;7.55;6.85;;;17.90;69.00;;;;;;5073523;28;20271;-66
2023/03/21 02:30:42;;;;;;;8.82;7.43;;;17.90;69.00;;;;;;5073217;28;20276;-66
2023/03/21 02:34:18;;;;;;;8.32;6.80;;;17.90;69.00;;;;;;5072897;28;20213;-66
2023/03/21 02:37:22;;;;;;;7.40;6.75;;;17.90;69.00;;;;;;5073021;28;20218;-66
2023/03/21 02:40:28;;;;;;;11.80;7.30;;;17.90;69.00;;;;;;5071736;28;20261;-66
2023/03/21 02:43:24;;;;;;;8.10;7.22;;;17.90;69.10;;;;;;5073245;28;20220;-66
2023/03/21 02:46:17;;;;;;;11.93;8.80;;;17.90;69.20;;;;;;5073191;28;20197;-66
2023/03/21 02:49:11;;;;;;;6.55;6.03;;;18.00;69.20;;;;;;5072377;28;20204;-66
2023/03/21 02:52:02;;;;;;;7.45;5.82;;;17.90;69.10;;;;;;5071667;28;20274;-66
2023/03/21 02:55:12;;;;;;;9.77;6.40;;;17.90;69.20;;;;;;5072206;28;20318;-66
2023/03/21 02:58:02;;;;;;;5.95;5.53;;;17.80;69.30;;;;;;5072157;28;20663;-66
2023/03/21 03:01:00;;;;;;;6.72;6.03;;;17.80;69.30;;;;;;5071636;28;20196;-66
2023/03/21 03:03:48;;;;;;;7.22;6.35;;;17.80;69.50;;;;;;5072417;28;20359;-66
2023/03/21 03:06:43;;;;;;;6.53;5.82;;;17.80;69.60;;;;;;5071942;28;20197;-66
2023/03/21 03:09:39;;;;;;;8.80;6.82;;;17.70;69.50;;;;;;5072738;28;20669;-66
2023/03/21 03:12:40;;;;;;;6.63;5.88;;;17.80;69.70;;;;;;5071129;28;20201;-66
2023/03/21 03:15:37;;;;;;;8.32;7.53;;;17.80;69.70;;;;;;5072122;28;20197;-66
2023/03/21 03:18:33;;;;;;;7.55;6.22;;;17.80;69.80;;;;;;5071969;28;20221;-66
2023/03/21 03:21:29;;;;;;;7.85;7.15;;;17.80;69.80;;;;;;5072194;28;20196;-66
2023/03/21 03:24:24;;;;;;;7.03;6.15;;;17.70;69.70;;;;;;5072000;28;20224;-66
2023/03/21 03:27:17;;;;;;;5.75;5.25;;;17.80;69.80;;;;;;5072114;28;20688;-66
2023/03/21 03:30:10;;;;;;;7.53;6.55;;;17.80;69.80;;;;;;5071816;28;20752;-66
2023/03/21 03:33:02;;;;;;;8.70;7.53;;;17.70;81.20;;;;;;5071220;28;20228;-66
2023/03/21 03:35:51;;;;;;;6.82;5.68;;;17.70;69.70;;;;;;5070775;28;20667;-66
2023/03/21 03:38:54;;;;;;;7.65;6.90;;;17.70;69.80;;;;;;5071210;28;20196;-66
2023/03/21 03:41:46;;;;;;;7.88;6.47;;;17.80;69.90;;;;;;5071521;28;20236;-66
2023/03/21 03:44:54;;;;;;;8.90;6.45;;;17.80;69.90;;;;;;5071413;28;20228;-66
2023/03/21 03:47:49;;;;;;;8.80;6.20;;;17.80;70.00;;;;;;5073369;28;20192;-66
2023/03/21 03:50:49;;;;;;;7.15;6.45;;;17.80;69.90;;;;;;5085993;28;20255;-67
2023/03/21 03:53:43;;;;;;;6.38;5.78;;;17.80;70.00;;;;;;5078780;28;20232;-66
2023/03/21 03:56:31;;;;;;;8.52;6.68;;;17.80;70.00;;;;;;5071384;28;20231;-66
2023/03/21 03:59:22;;;;;;;8.80;6.82;;;17.80;70.10;;;;;;5092519;28;20236;-66
2023/03/21 04:02:10;;;;;;;8.77;7.35;;;17.80;70.10;;;;;;5090869;28;20228;-66
2023/03/21 04:05:00;;;;;;;10.02;7.65;;;17.80;70.00;;;;;;5091439;28;20219;-66
2023/03/21 04:07:49;;;;;;;8.13;6.82;;;17.80;70.10;;;;;;5091287;28;20195;-66
2023/03/21 04:10:37;;;;;;;7.55;6.80;;;17.80;70.10;;;;;;5092201;28;20203;-66
2023/03/21 04:13:26;;;;;;;5.57;5.07;;;17.70;70.20;;;;;;5095088;28;20212;-66
2023/03/21 04:16:14;;;;;;;6.10;5.00;;;17.70;70.20;;;;;;5096960;28;20199;-66
2023/03/21 04:19:02;;;;;;;6.10;5.43;;;17.70;70.70;;;;;;5097732;28;20200;-66
2023/03/21 04:21:52;;;;;;;7.50;5.75;;;17.70;70.40;;;;;;5096987;28;20204;-66
2023/03/21 04:24:41;;;;;;;6.53;5.85;;;17.70;70.50;;;;;;5071462;28;20605;-66
2023/03/21 04:27:29;;;;;;;5.70;5.20;;;17.60;70.50;;;;;;5075278;28;20283;-68
2023/03/21 04:30:18;;;;;;;7.68;6.65;;;17.60;70.50;;;;;;5074459;28;20196;-66
2023/03/21 04:33:06;;;;;;;6.38;5.72;;;17.80;88.00;;;;;;5074401;28;20197;-66
2023/03/21 04:35:55;;;;;;;9.60;7.75;;;17.60;70.80;;;;;;5075964;28;20279;-66
2023/03/21 04:38:47;;;;;;;9.50;8.05;;;17.60;70.70;;;;;;5074533;28;20205;-66
2023/03/21 04:41:36;;;;;;;8.52;7.00;;;17.70;70.90;;;;;;5074206;28;20200;-66
2023/03/21 04:44:24;;;;;;;9.43;7.75;;;17.60;70.80;;;;;;5074449;28;20217;-66
2023/03/21 04:47:14;;;;;;;9.48;6.03;;;17.60;70.90;;;;;;5074672;28;20201;-66
2023/03/21 04:50:03;;;;;;;8.07;7.07;;;17.60;71.00;;;;;;5074619;28;20196;-66
2023/03/21 04:52:51;;;;;;;8.98;6.32;;;17.90;85.10;;;;;;5073795;28;20649;-66
2023/03/21 04:55:40;;;;;;;7.72;6.93;;;17.60;71.20;;;;;;5074696;28;20196;-66
2023/03/21 04:58:29;;;;;;;9.38;7.38;;;17.70;71.20;;;;;;5091776;28;20291;-66
2023/03/21 05:01:19;;;;;;;8.55;7.32;;;17.60;71.00;;;;;;5094108;28;20207;-66
2023/03/21 05:04:07;;;;;;;5.78;5.25;;;17.60;71.10;;;;;;5094829;28;20711;-66
2023/03/21 05:06:55;;;;;;;8.00;6.70;;;17.70;71.70;;;;;;5094471;28;20575;-66
2023/03/21 05:09:44;;;;;;;7.40;6.45;;;17.70;71.10;;;;;;5096155;28;20192;-67
2023/03/21 05:12:33;;;;;;;8.77;6.32;;;17.70;71.10;;;;;;5100862;28;20196;-66
2023/03/21 05:15:21;;;;;;;7.72;6.75;;;17.70;71.20;;;;;;5104030;28;20200;-66
2023/03/21 05:18:10;;;;;;;10.80;7.95;;;17.70;71.10;;;;;;5102474;28;20699;-66
2023/03/21 05:20:58;;;;;;;7.38;6.53;;;17.70;71.20;;;;;;5103579;28;20200;-66
2023/03/21 05:23:53;;;;;;;7.03;5.85;;;17.70;71.20;;;;;;5102949;28;20232;-66
2023/03/21 05:26:43;;;;;;;6.95;5.60;;;17.60;71.30;;;;;;5105820;28;20204;-66
2023/03/21 05:29:33;;;;;;;7.03;6.32;;;17.60;71.30;;;;;;5104845;28;20738;-67
2023/03/21 05:32:21;;;;;;;9.32;5.97;;;17.60;71.40;;;;;;5102374;28;20203;-67
2023/03/21 05:35:10;;;;;;;7.47;6.35;;;17.60;71.40;;;;;;5102073;28;20277;-66
2023/03/21 05:37:58;;;;;;;6.78;6.07;;;17.60;71.50;;;;;;5105227;28;20279;-66
2023/03/21 05:40:47;;;;;;;7.75;6.50;;;17.60;72.30;;;;;;5103370;28;20243;-66
2023/03/21 05:43:35;;;;;;;7.10;6.38;;;17.60;71.50;;;;;;5105561;28;20230;-66
2023/03/21 05:46:24;;;;;;;12.50;10.13;;;17.60;71.60;;;;;;5103883;28;20196;-66
2023/03/21 05:49:12;;;;;;;8.35;7.55;;;17.60;71.60;;;;;;5103257;28;20196;-66
2023/03/21 05:52:00;;;;;;;7.72;6.10;;;17.60;71.60;;;;;;5104690;28;20204;-66
2023/03/21 05:54:49;;;;;;;12.55;8.10;;;17.60;70.90;;;;;;5085980;22;20260;-68
2023/03/21 05:57:39;;;;;;;8.45;6.57;;;17.60;71.60;;;;;;5064693;28;20204;-68
2023/03/21 06:00:28;;;;;;;7.80;7.00;;;17.60;71.50;;;;;;5074004;28;20783;-68
2023/03/21 06:03:19;;;;;;;8.27;7.45;;;17.70;83.60;;;;;;5075547;28;20305;-68
2023/03/21 06:06:08;;;;;;;10.68;7.70;;;17.60;71.60;;;;;;5096082;28;20293;-67
2023/03/21 06:08:56;;;;;;;8.02;6.82;;;17.60;71.60;;;;;;5095529;28;20232;-68
2023/03/21 06:11:50;;;;;;;9.13;7.82;;;17.60;71.70;;;;;;5094887;28;20248;-69
2023/03/21 06:14:38;;;;;;;7.97;7.18;;;17.60;71.80;;;;;;5094807;28;20216;-68
2023/03/21 06:17:26;;;;;;;10.07;7.40;;;17.60;71.90;;;;;;5094130;28;20196;-68
2023/03/21 06:20:17;;;;;;;10.55;7.82;;;17.60;71.80;;;;;;5095453;28;20287;-68
2023/03/21 06:23:05;;;;;;;9.43;8.45;;;17.60;71.90;;;;;;5094745;28;20228;-68
2023/03/21 06:25:53;;;;;;;10.38;8.50;;;17.60;71.80;;;;;;5095410;28;20235;-67
2023/03/21 06:28:41;;;;;;;13.13;7.70;;;17.60;71.90;;;;;;5094324;28;20191;-67
2023/03/21 06:31:30;;;;;;;10.40;7.57;;;17.70;71.90;;;;;;5094867;28;20234;-68
2023/03/21 06:34:18;;;;;;;6.97;6.28;;;17.70;71.80;;;;;;5094444;28;20328;-68
2023/03/21 06:37:08;;;;;;;8.15;6.95;;;17.60;72.80;;;;;;5094618;28;20279;-67
2023/03/21 06:39:56;;;;;;;6.93;5.90;;;17.60;72.20;;;;;;5095198;28;20220;-68
2023/03/21 06:42:44;;;;;;;8.38;6.65;;;17.60;72.30;;;;;;5094142;28;20203;-68
2023/03/21 06:45:32;;;;;;;8.45;6.93;;;17.60;72.50;;;;;;5094555;28;20579;-68
2023/03/21 06:48:20;;;;;;;9.40;6.90;;;17.60;72.50;;;;;;5094085;28;20193;-68
2023/03/21 06:51:09;;;;;;;7.95;7.05;;;17.60;72.50;;;;;;5095131;28;20204;-67
2023/03/21 06:53:58;;;;;;;20.40;9.85;;;17.50;72.30;;;;;;5094820;28;20267;-68
2023/03/21 06:56:46;;;;;;;16.63;10.05;;;17.60;87.50;;;;;;5092011;28;20705;-68
2023/03/21 06:59:34;;;;;;;9.85;7.43;;;17.60;72.70;;;;;;5073558;28;20274;-68
2023/03/21 07:02:22;;;;;;;11.40;7.05;;;17.60;72.50;;;;;;5073393;28;20607;-68
2023/03/21 07:05:11;;;;;;;8.43;6.40;;;17.60;72.60;;;;;;5073407;28;20229;-68
2023/03/21 07:08:00;;;;;;;8.93;6.32;;;17.60;72.70;;;;;;5067001;28;20244;-68
2023/03/21 07:10:49;;;;;;;9.00;6.35;;;17.60;72.70;;;;;;5068109;28;20743;-67
2023/03/21 07:13:37;;;;;;;12.15;8.52;;;17.60;72.80;;;;;;5067567;28;20217;-69
2023/03/21 07:16:25;;;;;;;9.85;7.75;;;17.60;72.90;;;;;;5070334;28;20212;-68
2023/03/21 07:19:14;;;;;;;10.90;8.10;;;17.60;73.10;;;;;;5067016;28;20205;-68
2023/03/21 07:22:02;;;;;;;5.60;4.53;;;17.70;73.30;;;;;;5075109;28;20215;-68
2023/03/21 07:24:50;;;;;;;5.90;5.25;;;17.70;72.30;;;;;;5060111;28;20220;-68
2023/03/21 07:27:53;;;;;;;4.05;3.25;;;17.70;72.10;;;;;;5058810;28;20204;-68
2023/03/21 07:30:41;;;;;;;4.43;3.78;;;17.70;72.00;;;;;;5056424;28;20201;-68
2023/03/21 07:33:31;;;;;;;7.07;4.80;;;17.40;88.60;;;;;;5071790;28;20235;-66
2023/03/21 07:36:20;;;;;;;10.85;7.55;;;17.80;72.50;;;;;;5052809;28;20199;-68
2023/03/21 07:39:08;;;;;;;16.60;10.75;;;17.80;72.80;;;;;;5053980;28;20193;-67
2023/03/21 07:41:56;;;;;;;24.25;12.30;;;17.80;73.20;;;;;;5052554;28;20256;-67
2023/03/21 07:44:45;;;;;;;13.95;8.65;;;17.80;73.40;;;;;;5055437;28;20753;-67
2023/03/21 07:47:35;;;;;;;20.85;8.35;;;17.70;73.60;;;;;;5055924;28;20213;-68
2023/03/21 07:50:23;;;;;;;12.10;8.80;;;17.70;73.50;;;;;;5062123;28;20225;-69
2023/03/21 07:53:11;;;;;;;10.07;7.43;;;18.60;74.60;;;;;;5066051;28;20224;-68
2023/03/21 07:56:00;;;;;;;10.43;5.10;;;17.80;74.30;;;;;;5067062;28;20265;-68
2023/03/21 07:58:48;;;;;;;8.60;6.03;;;17.80;73.70;;;;;;5060016;28;20197;-66
2023/03/21 08:01:38;;;;;;;10.82;5.00;;;17.90;74.10;;;;;;5072468;28;20195;-67
2023/03/21 08:04:26;;;;;;;12.15;5.70;;;18.00;74.30;;;;;;5066912;28;20224;-67
2023/03/21 08:07:14;;;;;;;14.27;5.93;;;18.20;74.10;;;;;;5067363;28;20215;-66
2023/03/21 08:10:03;;;;;;;10.75;4.57;;;18.40;73.80;;;;;;5064042;28;20274;-68
2023/03/21 08:12:51;;;;;;;11.18;4.45;;;18.60;73.30;;;;;;5055591;28;20212;-66
2023/03/21 08:15:40;;;;;;;9.38;4.43;;;18.80;73.00;;;;;;5063259;28;20217;-67
2023/03/21 08:18:30;;;;;;;8.40;4.60;;;19.00;72.60;;;;;;5063860;28;20308;-68
2023/03/21 08:21:18;;;;;;;4.65;3.85;;;19.20;72.10;;;;;;5053660;28;20331;-68
2023/03/21 08:24:07;;;;;;;14.18;6.05;;;19.30;71.80;;;;;;5066073;28;20720;-68
2023/03/21 08:26:56;;;;;;;7.40;4.78;;;19.50;71.90;;;;;;5067200;28;20201;-69
2023/03/21 08:29:44;;;;;;;5.20;3.53;;;19.60;71.20;;;;;;5061206;28;20232;-71
2023/03/21 08:32:32;;;;;;;6.55;4.45;;;19.80;70.90;;;;;;5057600;28;20339;-72
2023/03/21 08:35:22;;;;;;;9.35;4.45;;;19.90;70.60;;;;;;5066947;28;20220;-69
2023/03/21 08:38:10;;;;;;;6.65;5.05;;;20.00;70.60;;;;;;5065927;28;20278;-71
2023/03/21 08:40:59;;;;;;;5.55;3.85;;;20.10;70.30;;;;;;5062288;28;20316;-71
2023/03/21 08:43:47;;;;;;;8.48;5.45;;;20.20;70.00;;;;;;5054825;28;20711;-68
2023/03/21 08:46:35;;;;;;;3.75;3.40;;;20.30;70.00;;;;;;5065272;28;20234;-69
2023/03/21 08:49:23;;;;;;;4.88;3.90;;;20.40;69.80;;;;;;5056582;28;20549;-69
2023/03/21 08:52:13;;;;;;;11.52;3.70;;;20.50;69.80;;;;;;5059753;28;20328;-70
2023/03/21 08:55:02;;;;;;;5.68;3.90;;;20.60;69.70;;;;;;5061351;28;20956;-69
2023/03/21 08:57:50;;;;;;;5.95;3.53;;;20.70;69.50;;;;;;5075457;28;20303;-67
2023/03/21 09:00:39;;;;;;;3.95;2.72;;;20.80;69.60;;;;;;5060434;28;20200;-69
2023/03/21 09:03:29;;;;;;;6.97;4.00;;;20.90;84.80;;;;;;5067084;28;20288;-66
2023/03/21 09:06:17;;;;;;;7.78;4.78;;;20.90;69.40;;;;;;5055662;28;20584;-66
2023/03/21 09:09:08;;;;;;;7.03;4.35;;;21.00;70.00;;;;;;5064179;28;20197;-69
2023/03/21 09:11:56;;;;;;;15.52;8.13;;;21.00;69.10;;;;;;5072190;28;20301;-67
2023/03/21 09:14:44;;;;;;;8.70;4.72;;;21.10;69.10;;;;;;5075877;28;20220;-67
2023/03/21 09:17:32;;;;;;;7.88;4.07;;;21.10;68.90;;;;;;5064821;28;20238;-68
2023/03/21 09:20:24;;;;;;;5.22;4.55;;;21.20;68.80;;;;;;5073644;28;20287;-68
2023/03/21 09:23:17;;;;;;;16.38;5.78;;;21.20;68.70;;;;;;5066839;28;20279;-69
2023/03/21 09:26:08;;;;;;;9.85;5.13;;;21.30;68.80;;;;;;5069675;28;20289;-69
2023/03/21 09:28:57;;;;;;;7.82;5.07;;;21.30;68.70;;;;;;5065425;28;20327;-70
2023/03/21 09:31:46;;;;;;;8.38;5.15;;;21.40;68.60;;;;;;5052107;28;20205;-71
2023/03/21 09:34:35;;;;;;;9.55;5.75;;;21.40;68.30;;;;;;5066912;28;20228;-72
2023/03/21 09:37:24;;;;;;;11.70;6.70;;;21.50;68.40;;;;;;5069732;28;20208;-70
2023/03/21 09:40:18;;;;;;;8.40;5.47;;;21.50;68.40;;;;;;5073026;28;20605;-68
2023/03/21 09:43:21;;;;;;;6.38;3.53;;;21.50;68.20;;;;;;5063794;28;20583;-72
2023/03/21 09:46:19;;;;;;;6.78;4.57;;;21.60;67.70;;;;;;5072777;28;20235;-68
2023/03/21 09:49:15;;;;;;;12.52;4.40;;;21.60;68.40;;;;;;5066788;28;20196;-68
2023/03/21 09:52:12;;;;;;;9.55;4.93;;;21.60;68.00;;;;;;5063869;28;20215;-68
2023/03/21 09:55:00;;;;;;;7.63;3.63;;;21.70;68.20;;;;;;5057998;28;20253;-69
2023/03/21 09:57:55;;;;;;;18.95;5.22;;;21.60;68.10;;;;;;5062081;28;20696;-69
2023/03/21 10:00:52;;;;;;;15.95;9.75;;;21.70;68.30;;;;;;5061935;28;20331;-68
2023/03/21 10:03:42;;;;;;;9.48;4.30;;;21.60;68.80;;;;;;5058336;28;20221;-69
2023/03/21 10:06:32;;;;;;;6.95;4.80;;;21.60;68.50;;;;;;5059650;28;20197;-69
2023/03/21 10:09:23;;;;;;;7.25;4.88;;;21.60;68.30;;;;;;5065780;28;20285;-68
2023/03/21 10:12:18;;;;;;;7.00;4.55;;;21.60;68.30;;;;;;5053315;28;20272;-69
2023/03/21 10:15:13;;;;;;;8.27;3.78;;;21.70;68.40;;;;;;5068831;28;20236;-68
2023/03/21 10:18:06;;;;;;;11.15;6.43;;;21.70;68.20;;;;;;5072804;28;20326;-68
2023/03/21 10:20:54;;;;;;;10.80;6.57;;;21.70;68.10;;;;;;5067809;28;20681;-69
2023/03/21 10:23:42;;;;;;;15.57;7.38;;;21.70;68.20;;;;;;5071807;28;20297;-69
2023/03/21 10:26:31;;;;;;;11.55;7.15;;;21.60;68.30;;;;;;5083354;28;20224;-69
2023/03/21 10:29:22;;;;;;;6.65;4.95;;;21.60;68.30;;;;;;5062260;28;20291;-69
2023/03/21 10:32:13;;;;;;;10.50;4.90;;;21.70;68.30;;;;;;5070753;28;20212;-69
2023/03/21 10:35:04;;;;;;;7.35;4.10;;;21.60;68.20;;;;;;5061020;28;20260;-67
2023/03/21 10:37:52;;;;;;;12.60;4.20;;;21.60;68.40;;;;;;5064858;28;20665;-68
2023/03/21 10:40:40;;;;;;;4.20;3.53;;;21.50;68.60;;;;;;5064142;28;20229;-68
2023/03/21 10:43:36;;;;;;;11.35;4.20;;;21.70;83.20;;;;;;5066589;28;20280;-67
2023/03/21 10:46:26;;;;;;;8.23;3.58;;;21.50;68.60;;;;;;5065769;28;20203;-68
2023/03/21 10:49:16;;;;;;;5.38;3.22;;;22.80;69.70;;;;;;5070336;28;20205;-67
2023/03/21 10:52:10;;;;;;;10.13;3.78;;;21.50;68.40;;;;;;5068868;28;20262;-68
2023/03/21 10:55:08;;;;;;;4.63;3.78;;;21.50;68.40;;;;;;5062964;28;20305;-67
2023/03/21 10:58:00;;;;;;;5.80;4.40;;;21.50;68.40;;;;;;5066050;28;20409;-68
2023/03/21 11:00:48;;;;;;;8.82;4.57;;;21.40;68.50;;;;;;5065732;28;20319;-66
2023/03/21 11:03:42;;;;;;;8.52;3.75;;;21.00;84.60;;;;;;5086049;28;20204;-66
2023/03/21 11:06:32;;;;;;;23.48;9.55;;;21.30;68.70;;;;;;5092430;28;20203;-68
2023/03/21 11:09:23;;;;;;;10.52;7.38;;;21.20;68.80;;;;;;5091816;28;20253;-67
2023/03/21 11:12:14;;;;;;;29.73;21.77;;;21.20;69.10;;;;;;5089321;28;20230;-71
2023/03/21 11:15:26;;;;;;;13.23;9.25;;;21.10;69.30;;;;;;5083411;28;20274;-71
2023/03/21 11:18:17;;;;;;;12.70;7.50;;;21.10;69.90;;;;;;5065419;28;20217;-70
2023/03/21 11:21:08;;;;;;;9.98;5.63;;;21.00;70.00;;;;;;5073709;28;20242;-70
2023/03/21 11:23:57;;;;;;;5.55;4.32;;;21.00;70.20;;;;;;5059042;28;20235;-70
2023/03/21 11:26:49;;;;;;;6.95;5.20;;;20.90;70.10;;;;;;5064106;28;20207;-69
2023/03/21 11:29:40;;;;;;;10.38;5.22;;;20.80;70.50;;;;;;5053144;28;20255;-70
2023/03/21 11:32:33;;;;;;;5.20;4.70;;;20.80;70.70;;;;;;5066718;28;20231;-70
2023/03/21 11:35:24;;;;;;;4.85;4.22;;;20.70;71.00;;;;;;5070338;28;20701;-70
2023/03/21 11:38:25;;;;;;;4.90;4.20;;;20.70;71.00;;;;;;5060250;28;20221;-70
2023/03/21 11:41:22;;;;;;;5.90;4.00;;;20.70;71.20;;;;;;5055943;28;20192;-73
2023/03/21 11:44:27;;;;;;;13.38;9.43;;;20.60;71.50;;;;;;5060342;28;20220;-73
2023/03/21 11:47:15;;;;;;;9.10;8.02;;;20.50;71.50;;;;;;5069547;28;20254;-71
2023/03/21 11:50:16;;;;;;;7.13;4.80;;;20.50;71.60;;;;;;5064253;28;20213;-71
2023/03/21 11:53:20;;;;;;;10.73;5.60;;;20.40;71.70;;;;;;5063287;28;20203;-74
2023/03/21 11:56:19;;;;;;;12.35;4.40;;;20.30;71.40;;;;;;5067614;28;20387;-71
2023/03/21 11:59:18;;;;;;;7.10;3.40;;;20.30;71.70;;;;;;5050291;28;20197;-74
2023/03/21 12:02:35;;;;;;;3.28;2.70;;;20.20;71.80;;;;;;5059516;28;20194;-71
2023/03/21 12:05:26;;;;;;;2.90;2.50;;;20.10;71.80;;;;;;5070840;28;20286;-68
2023/03/21 12:08:26;;;;;;;3.13;2.70;;;20.10;71.90;;;;;;5068025;28;20254;-70
2023/03/21 12:11:22;;;;;;;4.78;2.95;;;20.10;72.00;;;;;;5049674;28;20245;-71
2023/03/21 12:14:17;;;;;;;3.80;2.70;;;20.10;72.00;;;;;;5055358;28;20225;-71
2023/03/21 12:17:12;;;;;;;4.45;2.67;;;20.20;72.00;;;;;;5051207;28;20915;-68
2023/03/21 12:20:13;;;;;;;3.88;3.47;;;20.20;71.90;;;;;;5058699;28;20201;-70
2023/03/21 12:23:21;;;;;;;4.45;3.08;;;20.20;71.80;;;;;;5071667;28;20191;-70
2023/03/21 12:26:19;;;;;;;7.90;3.03;;;20.20;71.70;;;;;;5071891;28;20694;-68
2023/03/21 12:29:17;;;;;;;4.00;2.97;;;20.20;71.60;;;;;;5049831;28;20658;-67
2023/03/21 12:32:17;;;;;;;3.95;2.85;;;20.30;71.60;;;;;;5059930;28;20212;-66
2023/03/21 12:35:20;;;;;;;3.03;2.63;;;20.30;71.50;;;;;;5061642;28;20260;-65
2023/03/21 12:38:16;;;;;;;4.07;2.45;;;20.30;71.50;;;;;;5074368;28;20282;-70
2023/03/21 12:41:18;;;;;;;5.55;2.80;;;20.30;71.30;;;;;;5062180;28;20203;-74
2023/03/21 12:44:13;;;;;;;5.80;2.55;;;20.40;71.50;;;;;;5061665;28;20264;-69
2023/03/21 12:47:05;;;;;;;3.20;2.88;;;20.40;71.30;;;;;;5058210;28;20302;-67
2023/03/21 12:50:00;;;;;;;4.88;2.47;;;20.40;71.10;;;;;;5060844;28;20547;-70
2023/03/21 12:52:54;;;;;;;4.63;3.15;;;20.40;71.20;;;;;;5049433;28;20236;-72
2023/03/21 12:55:43;;;;;;;4.10;3.35;;;20.50;71.20;;;;;;5055281;28;20291;-70
2023/03/21 12:58:37;;;;;;;4.60;3.35;;;20.50;71.60;;;;;;5068399;28;20201;-71
2023/03/21 13:01:27;;;;;;;3.55;2.97;;;20.50;71.70;;;;;;5069848;28;20235;-70
2023/03/21 13:04:33;;;;;;;3.35;3.03;;;20.50;71.60;;;;;;5059762;28;20380;-69
2023/03/21 13:07:24;;;;;;;5.97;3.10;;;20.50;72.10;;;;;;5060889;28;20199;-70
2023/03/21 13:10:16;;;;;;;3.80;2.95;;;20.50;72.20;;;;;;5067429;28;20199;-69
2023/03/21 13:13:12;;;;;;;5.47;4.93;;;20.50;72.30;;;;;;5073258;28;20274;-70
2023/03/21 13:16:07;;;;;;;9.07;4.32;;;20.50;72.40;;;;;;5073316;28;20583;-69
2023/03/21 13:19:02;;;;;;;4.70;3.55;;;20.50;72.50;;;;;;5073061;28;20207;-71
2023/03/21 13:21:57;;;;;;;6.13;2.72;;;20.40;72.50;;;;;;5072999;28;20287;-69
2023/03/21 13:24:48;;;;;;;4.10;2.85;;;20.40;72.40;;;;;;5072695;28;20847;-71
2023/03/21 13:27:39;;;;;;;5.03;2.70;;;20.30;72.80;;;;;;5073468;28;20254;-70
2023/03/21 13:30:28;;;;;;;3.22;2.55;;;20.30;73.00;;;;;;5073274;28;20718;-68
2023/03/21 13:33:22;;;;;;;2.75;2.20;;;20.30;73.30;;;;;;5058902;28;20213;-69
2023/03/21 13:36:14;;;;;;;3.28;2.58;;;20.30;73.30;;;;;;5052167;28;20263;-71
2023/03/21 13:39:05;;;;;;;7.28;3.13;;;20.30;73.10;;;;;;5053895;28;20296;-71
2023/03/21 13:41:54;;;;;;;11.75;2.60;;;20.40;73.30;;;;;;5070645;28;20246;-70
2023/03/21 13:44:48;;;;;;;5.28;2.13;;;20.40;73.20;;;;;;5072389;28;20220;-70
2023/03/21 13:47:51;;;;;;;2.80;2.45;;;20.40;73.10;;;;;;5053107;28;20205;-69
2023/03/21 13:50:53;;;;;;;2.97;2.03;;;20.40;73.10;;;;;;5062679;28;20200;-69
2023/03/21 13:53:42;;;;;;;4.07;2.80;;;20.50;74.10;;;;;;5066275;28;20227;-71
2023/03/21 13:56:49;;;;;;;8.20;3.40;;;20.50;73.10;;;;;;5070647;28;20686;-69
2023/03/21 13:59:40;;;;;;;5.97;2.70;;;20.50;72.90;;;;;;5064689;28;20196;-71
2023/03/21 14:02:32;;;;;;;3.10;2.13;;;20.50;72.90;;;;;;5058220;28;20200;-73
2023/03/21 14:05:24;;;;;;;3.83;2.50;;;20.60;72.80;;;;;;5071153;28;20216;-69
2023/03/21 14:08:17;;;;;;;2.50;2.30;;;20.60;72.50;;;;;;5065083;28;20205;-69
2023/03/21 14:11:22;;;;;;;4.05;2.92;;;20.70;72.60;;;;;;5054238;28;20212;-68
2023/03/21 14:14:10;;;;;;;5.25;2.83;;;20.70;72.50;;;;;;5071538;28;20374;-68
2023/03/21 14:16:59;;;;;;;4.55;3.10;;;20.70;72.50;;;;;;5051315;28;20239;-68
2023/03/21 14:19:52;;;;;;;5.72;3.13;;;20.80;72.50;;;;;;5057881;28;20669;-67
2023/03/21 14:22:41;;;;;;;4.05;3.22;;;20.80;72.40;;;;;;5062729;28;20319;-68
2023/03/21 14:25:34;;;;;;;8.93;3.40;;;20.80;72.70;;;;;;5061569;28;20220;-68
2023/03/21 14:28:32;;;;;;;4.25;2.75;;;20.80;72.80;;;;;;5066327;28;20334;-66
2023/03/21 14:31:21;;;;;;;5.45;3.08;;;20.80;72.80;;;;;;5062179;28;20201;-66
2023/03/21 14:34:11;;;;;;;6.80;3.45;;;20.80;73.10;;;;;;5062192;28;20231;-66
2023/03/21 14:37:00;;;;;;;8.23;3.10;;;20.90;73.00;;;;;;5063415;28;20231;-65
2023/03/21 14:39:57;;;;;;;3.28;2.97;;;20.80;73.10;;;;;;5051605;28;20217;-68
2023/03/21 14:42:49;;;;;;;9.32;3.40;;;20.70;73.30;;;;;;5060332;28;20258;-68
2023/03/21 14:45:37;;;;;;;4.68;3.05;;;20.70;73.60;;;;;;5065486;28;20359;-66
2023/03/21 14:48:30;;;;;;;7.43;3.67;;;20.70;73.80;;;;;;5057240;28;20574;-66
2023/03/21 14:51:19;;;;;;;4.38;3.15;;;20.70;74.10;;;;;;5068726;28;20204;-69
2023/03/21 14:54:12;;;;;;;7.35;3.90;;;20.60;74.00;;;;;;5070904;28;20220;-66